Time;durP1;ratioP1;P1;durP2;ratioP2;P2;SDS_P1;SDS_P2;PMS_P1;PMS_P2;Temp;Humidity;BMP_temperature;BMP_pressure;BME280_temperature;BME280_humidity;BME280_pressure;Samples;Min_cycle;Max_cycle;Signal;HPM_P1;HPM_P2
2023/12/15 00:00:28;;;;;;;25.10;12.20;;;;;;;1.05;100.00;99617.02;107915;1307;22886;-54
2023/12/15 00:02:56;;;;;;;25.30;11.40;;;;;;;1.09;100.00;99623.70;107908;1307;22399;-46
2023/12/15 00:05:21;;;;;;;29.60;13.30;;;;;;;1.06;100.00;99622.71;107940;1307;22436;-51
2023/12/15 00:07:46;;;;;;;24.90;13.50;;;;;;;1.03;100.00;99624.81;107905;1307;23291;-51
2023/12/15 00:10:12;;;;;;;26.40;13.90;;;;;;;1.03;100.00;99628.96;107911;1307;23088;-55
2023/12/15 00:12:37;;;;;;;22.30;12.50;;;;;;;1.05;100.00;99628.94;107911;1307;22221;-51
2023/12/15 00:15:03;;;;;;;23.00;12.90;;;;;;;1.07;100.00;99632.19;107928;1307;23259;-49
2023/12/15 00:17:28;;;;;;;28.50;12.70;;;;;;;1.04;100.00;99634.13;107897;1307;23214;-53
2023/12/15 00:19:54;;;;;;;24.50;13.20;;;;;;;1.00;100.00;99637.95;107920;1307;22247;-59
2023/12/15 00:22:19;;;;;;;27.10;14.30;;;;;;;1.02;99.95;99637.77;107893;1307;23281;-55
2023/12/15 00:24:45;;;;;;;23.00;13.40;;;;;;;1.02;99.93;99639.33;107937;1307;22238;-52
2023/12/15 00:27:10;;;;;;;25.50;13.80;;;;;;;1.06;100.00;99647.75;107894;1307;22314;-56
2023/12/15 00:29:35;;;;;;;22.90;13.20;;;;;;;1.04;99.97;99650.35;107885;1307;22252;-47
2023/12/15 00:32:02;;;;;;;20.00;12.10;;;;;;;1.05;99.93;99656.39;107910;1307;23264;-54
2023/12/15 00:34:27;;;;;;;24.40;12.60;;;;;;;1.04;99.94;99658.48;107932;1307;22252;-55
2023/12/15 00:36:52;;;;;;;27.00;13.30;;;;;;;1.00;99.43;99666.98;107912;1307;22277;-51
2023/12/15 00:39:18;;;;;;;22.40;11.80;;;;;;;0.98;99.16;99673.55;107889;1307;22259;-54
2023/12/15 00:41:43;;;;;;;21.20;12.10;;;;;;;0.99;99.23;99682.70;107897;1307;22234;-52
2023/12/15 00:44:08;;;;;;;26.10;12.90;;;;;;;0.98;99.25;99688.40;107913;1307;22281;-48
2023/12/15 00:46:34;;;;;;;29.00;12.60;;;;;;;0.93;98.86;99698.98;107891;1307;22594;-46
2023/12/15 00:48:59;;;;;;;22.80;12.70;;;;;;;0.96;99.25;99702.75;107922;1307;22259;-49
2023/12/15 00:51:25;;;;;;;26.30;12.60;;;;;;;0.94;99.12;99708.29;107920;1307;22254;-47
2023/12/15 00:53:51;;;;;;;24.30;13.00;;;;;;;0.92;98.73;99705.73;107699;1307;22294;-60
2023/12/15 00:56:16;;;;;;;20.10;11.80;;;;;;;0.94;98.95;99711.06;107940;1307;22938;-55
2023/12/15 00:58:42;;;;;;;25.70;13.70;;;;;;;0.97;99.40;99712.75;107909;1307;22258;-45
2023/12/15 01:01:07;;;;;;;27.20;13.40;;;;;;;0.99;99.00;99716.89;107928;1307;22249;-58
2023/12/15 01:03:32;;;;;;;21.60;11.70;;;;;;;0.96;98.33;99721.73;107897;1307;22919;-53
2023/12/15 01:05:58;;;;;;;21.30;11.70;;;;;;;0.98;98.37;99726.04;107900;1307;22135;-53
2023/12/15 01:08:24;;;;;;;21.90;11.10;;;;;;;0.97;98.19;99730.02;107927;1307;22481;-60
2023/12/15 01:10:50;;;;;;;19.30;11.80;;;;;;;0.98;98.16;99735.18;107919;1307;22263;-52
2023/12/15 01:13:16;;;;;;;21.50;11.20;;;;;;;0.91;98.03;99741.81;107919;1307;22219;-52
2023/12/15 01:15:41;;;;;;;20.00;11.20;;;;;;;0.84;98.15;99745.68;107921;1307;22350;-49
2023/12/15 01:18:06;;;;;;;22.50;11.80;;;;;;;0.81;98.21;99746.22;107889;1307;22433;-50
2023/12/15 01:20:32;;;;;;;24.90;11.70;;;;;;;0.82;98.44;99751.05;107935;1307;22339;-49
2023/12/15 01:22:57;;;;;;;24.50;12.30;;;;;;;0.78;98.30;99753.48;107918;1307;22273;-50
2023/12/15 01:25:23;;;;;;;23.40;12.00;;;;;;;0.80;98.46;99756.41;107927;1307;22257;-48
2023/12/15 01:27:48;;;;;;;24.80;12.80;;;;;;;0.85;98.47;99760.16;107933;1307;22338;-50
2023/12/15 01:30:13;;;;;;;24.30;11.20;;;;;;;0.85;98.62;99762.58;107894;1307;22494;-55
2023/12/15 01:32:40;;;;;;;28.90;13.10;;;;;;;0.84;98.71;99769.83;107922;1307;22252;-55
2023/12/15 01:35:05;;;;;;;22.60;11.40;;;;;;;0.83;98.99;99776.58;107929;1307;22259;-53
2023/12/15 01:37:31;;;;;;;21.60;11.90;;;;;;;0.80;98.53;99776.77;107930;1307;22295;-59
2023/12/15 01:39:56;;;;;;;20.30;11.00;;;;;;;0.83;98.17;99778.13;107917;1307;22263;-48
2023/12/15 01:42:22;;;;;;;22.90;12.40;;;;;;;0.83;97.99;99780.03;107918;1307;22409;-57
2023/12/15 01:44:47;;;;;;;26.30;12.40;;;;;;;0.82;98.03;99780.73;107918;1307;22503;-54
2023/12/15 01:47:14;;;;;;;19.30;11.40;;;;;;;0.86;98.33;99786.58;107920;1307;22247;-57
2023/12/15 01:49:40;;;;;;;23.80;12.80;;;;;;;0.86;97.95;99789.85;107909;1307;22508;-57
2023/12/15 01:52:06;;;;;;;26.20;13.10;;;;;;;0.77;98.00;99794.23;107930;1307;22538;-49
2023/12/15 01:54:31;;;;;;;22.30;12.70;;;;;;;0.75;98.22;99797.35;107929;1307;23076;-45
2023/12/15 01:56:57;;;;;;;25.20;13.10;;;;;;;0.79;98.11;99801.63;107894;1307;23254;-49
2023/12/15 01:59:22;;;;;;;23.10;12.60;;;;;;;0.79;98.04;99804.56;107908;1307;22253;-53
2023/12/15 02:01:48;;;;;;;28.70;16.30;;;;;;;0.85;98.24;99800.20;107900;1307;22364;-55
2023/12/15 02:04:13;;;;;;;38.00;18.20;;;;;;;0.83;98.62;99797.29;107879;1307;23284;-51
2023/12/15 02:06:38;;;;;;;21.80;12.90;;;;;;;0.79;98.03;99803.88;107884;1307;23072;-52
2023/12/15 02:09:04;;;;;;;23.60;11.90;;;;;;;0.86;97.97;99798.46;107922;1307;22473;-57
2023/12/15 02:11:30;;;;;;;25.00;13.30;;;;;;;0.87;98.00;99808.81;107904;1307;22418;-48
2023/12/15 02:13:55;;;;;;;25.10;12.10;;;;;;;0.88;97.85;99812.09;107909;1307;22237;-56
2023/12/15 02:16:21;;;;;;;23.40;11.30;;;;;;;0.81;97.59;99816.81;107891;1307;22362;-52
2023/12/15 02:18:46;;;;;;;24.40;11.30;;;;;;;0.70;96.89;99826.37;107876;1307;23105;-46
2023/12/15 02:21:11;;;;;;;22.60;11.60;;;;;;;0.77;97.11;99832.71;107890;1307;22351;-50
2023/12/15 02:23:37;;;;;;;21.00;10.80;;;;;;;0.82;97.38;99839.41;107894;1307;22351;-58
2023/12/15 02:26:03;;;;;;;22.00;10.90;;;;;;;0.82;97.49;99832.67;107911;1307;22227;-51
2023/12/15 02:28:28;;;;;;;19.10;10.70;;;;;;;0.83;97.54;99825.77;107899;1307;22442;-57
2023/12/15 02:30:54;;;;;;;19.60;11.40;;;;;;;0.82;97.53;99824.39;107901;1307;22239;-50
2023/12/15 02:33:19;;;;;;;27.30;12.10;;;;;;;0.89;97.77;99825.71;107876;1307;22428;-53
2023/12/15 02:35:47;;;;;;;24.40;11.40;;;;;;;0.93;97.69;99829.48;107888;1307;23323;-50
2023/12/15 02:38:18;;;;;;;24.20;11.80;;;;;;;0.95;97.74;99831.71;107876;1307;22484;-52
2023/12/15 02:43:39;;;;;;;20.10;11.20;;;;;;;1.02;96.39;99840.31;106900;1308;545412;-49
2023/12/15 02:46:05;;;;;;;17.80;10.80;;;;;;;1.01;96.34;99849.47;107243;1314;23140;-47
2023/12/15 02:48:31;;;;;;;22.90;11.70;;;;;;;1.02;96.43;99854.29;107258;1314;22467;-55
2023/12/15 02:50:56;;;;;;;17.10;10.20;;;;;;;1.06;96.88;99850.63;107247;1314;22985;-57
2023/12/15 02:53:21;;;;;;;22.70;11.00;;;;;;;1.04;96.64;99849.43;107257;1314;22309;-51
2023/12/15 02:55:47;;;;;;;22.70;11.60;;;;;;;1.05;96.74;99844.94;107261;1314;22244;-47
2023/12/15 02:58:12;;;;;;;19.30;11.00;;;;;;;1.01;96.62;99846.01;107336;1312;155093;-53
2023/12/15 03:00:38;;;;;;;21.90;11.70;;;;;;;1.02;96.32;99848.24;107444;1311;22291;-49
2023/12/15 03:03:03;;;;;;;21.80;11.60;;;;;;;1.07;96.25;99848.21;107463;1312;22236;-49
2023/12/15 03:05:29;;;;;;;18.90;11.00;;;;;;;1.10;96.18;99840.57;107421;1312;22549;-52
2023/12/15 03:07:54;;;;;;;22.50;11.30;;;;;;;1.13;95.74;99845.91;107458;1312;22260;-45
2023/12/15 03:10:20;;;;;;;22.00;10.50;;;;;;;1.13;95.45;99841.41;107466;1312;22687;-47
2023/12/15 03:12:45;;;;;;;21.90;11.50;;;;;;;1.16;95.58;99840.70;107466;1312;22935;-49
2023/12/15 03:15:10;;;;;;;19.90;11.00;;;;;;;1.20;95.73;99845.69;107509;1311;22256;-47
2023/12/15 03:17:36;;;;;;;21.60;11.30;;;;;;;1.23;95.90;99839.95;107502;1311;22340;-50
2023/12/15 03:20:02;;;;;;;18.80;10.70;;;;;;;1.28;95.54;99841.98;107486;1311;22228;-50
2023/12/15 03:22:27;;;;;;;21.70;11.80;;;;;;;1.30;95.18;99853.20;107512;1311;22226;-51
2023/12/15 03:24:52;;;;;;;24.70;11.80;;;;;;;1.32;95.15;99876.85;107503;1311;22212;-46
2023/12/15 03:27:18;;;;;;;23.30;12.20;;;;;;;1.29;95.04;99883.27;107487;1311;22824;-51
2023/12/15 03:29:43;;;;;;;22.80;12.50;;;;;;;1.26;94.92;99883.12;107480;1311;22955;-51
2023/12/15 03:32:09;;;;;;;20.90;10.90;;;;;;;1.28;95.35;99903.66;107492;1311;22323;-56
2023/12/15 03:34:34;;;;;;;21.20;11.70;;;;;;;1.26;95.53;99913.86;107491;1311;22261;-50
2023/12/15 03:36:59;;;;;;;21.00;11.80;;;;;;;1.21;95.69;99919.77;107489;1311;23195;-49
2023/12/15 03:39:25;;;;;;;23.90;12.30;;;;;;;1.09;95.40;99923.99;107520;1311;22251;-53
2023/12/15 03:41:50;;;;;;;26.10;12.70;;;;;;;1.06;95.38;99924.20;107520;1311;22237;-54
2023/12/15 03:44:15;;;;;;;27.60;12.40;;;;;;;1.04;95.25;99919.55;107502;1311;23015;-54
2023/12/15 03:46:41;;;;;;;21.20;11.50;;;;;;;1.08;95.61;99928.84;107695;1309;22472;-50
2023/12/15 03:49:06;;;;;;;22.30;11.90;;;;;;;1.08;95.79;99928.14;107692;1309;22266;-50
2023/12/15 03:51:32;;;;;;;23.80;12.20;;;;;;;1.10;95.76;99928.31;107703;1309;22400;-55
2023/12/15 03:53:57;;;;;;;27.40;12.20;;;;;;;1.07;95.11;99927.98;107680;1309;23034;-52
2023/12/15 03:56:24;;;;;;;25.60;12.40;;;;;;;1.10;95.50;99931.42;107682;1309;22426;-49
2023/12/15 03:58:49;;;;;;;22.50;11.00;;;;;;;1.11;95.44;99934.17;107676;1309;22476;-52
2023/12/15 04:01:15;;;;;;;27.30;12.20;;;;;;;1.14;94.97;99940.70;107697;1309;22478;-58
2023/12/15 04:03:40;;;;;;;24.20;12.50;;;;;;;1.13;94.33;99942.80;107659;1294;22413;-52
2023/12/15 04:06:08;;;;;;;25.60;11.60;;;;;;;1.16;94.67;99941.73;107630;1310;22238;-57
2023/12/15 04:08:34;;;;;;;22.50;11.90;;;;;;;1.18;94.64;99940.70;107652;1310;22240;-54
2023/12/15 04:10:59;;;;;;;26.30;12.70;;;;;;;1.22;94.85;99939.45;107624;1310;22207;-54
2023/12/15 04:13:24;;;;;;;25.50;11.60;;;;;;;1.29;94.58;99940.97;107632;1310;23096;-55
2023/12/15 04:15:50;;;;;;;21.40;11.30;;;;;;;1.31;94.59;99939.73;107621;1310;22118;-55
2023/12/15 04:18:16;;;;;;;22.70;11.10;;;;;;;1.33;94.42;99946.80;107628;1310;23236;-50
2023/12/15 04:20:42;;;;;;;22.90;11.50;;;;;;;1.33;94.00;99949.57;107651;1310;22256;-57
2023/12/15 04:23:07;;;;;;;25.90;10.80;;;;;;;1.33;94.01;99954.41;107626;1310;22182;-51
2023/12/15 04:25:33;;;;;;;19.50;11.50;;;;;;;1.32;93.74;99958.21;107613;1310;22247;-55
2023/12/15 04:27:58;;;;;;;19.30;10.70;;;;;;;1.34;93.71;99965.98;107627;1310;22293;-51
2023/12/15 04:30:24;;;;;;;17.70;10.90;;;;;;;1.34;93.78;99967.88;107604;1310;22431;-58
2023/12/15 04:32:49;;;;;;;21.10;11.50;;;;;;;1.35;93.72;99968.73;107624;1310;23131;-51
2023/12/15 04:35:15;;;;;;;20.90;11.30;;;;;;;1.39;94.03;99969.05;107624;1310;22329;-53
2023/12/15 04:37:44;;;;;;;22.20;11.50;;;;;;;1.39;93.32;99962.48;107600;1310;22240;-54
2023/12/15 04:40:13;;;;;;;22.50;11.20;;;;;;;1.41;93.49;99963.86;107637;1310;22235;-54
2023/12/15 04:42:39;;;;;;;20.80;11.50;;;;;;;1.44;93.44;99974.55;107629;1310;22268;-47
2023/12/15 04:45:08;;;;;;;19.70;11.10;;;;;;;1.45;93.30;99977.14;107616;1310;22993;-47
2023/12/15 04:47:34;;;;;;;18.10;10.40;;;;;;;1.45;93.24;99976.10;107629;1295;23326;-52
2023/12/15 04:49:59;;;;;;;22.50;12.80;;;;;;;1.46;93.25;99982.30;107619;1310;23108;-49
2023/12/15 04:52:24;;;;;;;26.00;12.30;;;;;;;1.49;93.32;99984.36;107621;1310;22271;-53
2023/12/15 04:54:50;;;;;;;24.70;12.80;;;;;;;1.50;93.48;99987.27;107465;1310;22583;-49
2023/12/15 04:57:15;;;;;;;25.50;12.60;;;;;;;1.50;93.28;99989.53;107427;1310;23030;-54
2023/12/15 04:59:41;;;;;;;20.30;11.00;;;;;;;1.50;93.44;99994.38;107644;1309;22489;-54
2023/12/15 05:02:07;;;;;;;21.00;11.50;;;;;;;1.51;93.24;99995.58;107655;1309;22226;-51
2023/12/15 05:04:33;;;;;;;23.80;12.40;;;;;;;1.51;93.12;99999.55;107662;1309;22224;-48
2023/12/15 05:06:58;;;;;;;20.20;11.10;;;;;;;1.48;92.89;100002.33;107664;1309;22283;-54
2023/12/15 05:09:24;;;;;;;24.00;11.20;;;;;;;1.49;93.24;100003.02;107647;1309;22312;-48
2023/12/15 05:11:49;;;;;;;24.60;11.20;;;;;;;1.51;93.51;100005.42;107661;1310;22261;-54
2023/12/15 05:14:15;;;;;;;21.50;10.60;;;;;;;1.51;93.34;100006.64;107641;1310;22499;-51
2023/12/15 05:16:40;;;;;;;21.80;11.20;;;;;;;1.51;93.37;100010.27;107662;1310;22277;-51
2023/12/15 05:19:05;;;;;;;20.50;11.70;;;;;;;1.53;93.22;100008.70;107672;1309;22231;-51
2023/12/15 05:21:31;;;;;;;23.20;11.90;;;;;;;1.52;92.99;100011.28;107673;1309;22273;-51
2023/12/15 05:23:58;;;;;;;21.50;11.30;;;;;;;1.52;93.09;100017.52;107683;1310;24223;-50
2023/12/15 05:26:25;;;;;;;;;;;;;;;1.52;93.18;100018.02;107659;1310;22510;-51
2023/12/15 05:28:51;;;;;;;26.60;11.20;;;;;;;1.50;92.78;100019.95;107664;1310;22510;-56
2023/12/15 05:31:16;;;;;;;24.90;11.30;;;;;;;1.53;93.41;100016.80;107661;1310;22220;-50
2023/12/15 05:33:42;;;;;;;25.80;11.70;;;;;;;1.51;93.14;100015.95;107660;1310;22345;-51
2023/12/15 05:36:15;;;;;;;20.10;12.10;;;;;;;1.49;93.01;100019.09;107678;1310;22968;-51
2023/12/15 05:38:41;;;;;;;20.30;11.50;;;;;;;1.50;93.04;100021.51;107674;1310;22410;-59
2023/12/15 05:41:07;;;;;;;21.30;11.00;;;;;;;1.50;93.14;100027.55;107663;1310;22238;-49
2023/12/15 05:43:32;;;;;;;21.10;10.90;;;;;;;1.51;93.07;100030.66;107648;1310;22326;-55
2023/12/15 05:45:58;;;;;;;22.00;10.90;;;;;;;1.51;93.43;100026.00;107700;1309;22467;-57
2023/12/15 05:48:23;;;;;;;24.10;10.90;;;;;;;1.52;93.39;100022.70;107679;1310;22441;-55
2023/12/15 05:50:49;;;;;;;20.40;11.70;;;;;;;1.50;92.90;100026.52;107673;1309;22246;-54
2023/12/15 05:53:14;;;;;;;25.90;11.90;;;;;;;1.48;93.06;100035.34;107665;1310;22367;-52
2023/12/15 05:55:40;;;;;;;20.20;10.30;;;;;;;1.50;93.11;100040.34;107683;1310;22401;-50
2023/12/15 05:58:05;;;;;;;20.60;10.80;;;;;;;1.50;92.61;100039.30;107677;1310;22412;-48
2023/12/15 06:00:30;;;;;;;23.60;11.10;;;;;;;1.51;92.50;100042.41;107641;1302;22222;-52
2023/12/15 06:02:56;;;;;;;26.80;11.60;;;;;;;1.50;92.44;100045.88;107663;1310;22242;-57
2023/12/15 06:05:21;;;;;;;17.60;10.00;;;;;;;1.50;92.47;100051.40;107662;1310;23117;-48
2023/12/15 06:07:47;;;;;;;20.00;10.70;;;;;;;1.52;92.23;100055.88;107666;1310;22245;-53
2023/12/15 06:10:12;;;;;;;20.30;10.70;;;;;;;1.55;92.28;100066.07;107671;1310;22369;-51
2023/12/15 06:12:37;;;;;;;20.70;11.20;;;;;;;1.61;92.57;100069.99;107632;1310;22474;-49
2023/12/15 06:15:05;;;;;;;19.80;11.20;;;;;;;1.58;92.28;100072.78;107687;1310;22437;-58
2023/12/15 06:17:31;;;;;;;20.70;11.30;;;;;;;1.52;92.06;100072.64;107694;1310;22255;-48
2023/12/15 06:19:57;;;;;;;18.80;10.70;;;;;;;1.51;92.29;100078.00;107678;1310;22280;-51
2023/12/15 06:22:22;;;;;;;70.40;26.40;;;;;;;1.54;92.59;100077.64;107651;1309;22228;-48
2023/12/15 06:24:47;;;;;;;22.50;12.40;;;;;;;1.56;92.72;100075.91;107684;1310;23011;-56
2023/12/15 06:27:13;;;;;;;22.60;11.90;;;;;;;1.54;92.66;100078.34;107692;1310;22452;-61
2023/12/15 06:29:40;;;;;;;22.10;11.50;;;;;;;1.53;92.68;100081.27;107662;1310;22275;-48
